Perth, Australia

01:12 PM AWST am 28. Juni 2017 (GMT +0800)
Rivervale | | Change Station

Höhe 49 ft 31.95 °S, 115.92 °E | Updated 29 seconds ago

Partly Cloudy
Teils Wolkig
63.0 °F
gefühlte 63.0 °F
N
1.8
Wind Wechselnd Wind aus Ost-Nordost
Gusts 2.5 mph

Heute
Max. -- | schwach -- °F
--% Regenrisiko
Gestern
Max. -- | schwach -- °F
Precip. -- inch
Druck 30.45 inch
Sichtweite 6.2 Meilen
Wolken Few 4000 ft
Taupunkt 32 °F
Feuchtigkeit 31%
Regen 0.00 inch
Schneehöhe Nicht verfügbar..
7:17 AM 5:21 PM
Erstes Viertel, 22% visible
METAR YPPH 280500Z 06009KT 050V120 9999 FEW040 18/06 Q1031 NOSIG
Druck 30.45 inch
Sichtweite 6.2 Meilen
Wolken Few 4000 ft
Taupunkt 32 °F
Feuchtigkeit 31%
Regen 0.00 inch
Schneehöhe Nicht verfügbar..
7:17 AM 5:21 PM
Erstes Viertel, 22% visible
METAR YPPH 280500Z 06009KT 050V120 9999 FEW040 18/06 Q1031 NOSIG

Get Severe Weather Alerts

Thanks for signing up!

Be on the lookout for a verification email in your inbox.

You'll start receiving the daily forecast at 6 AM.

×

10-Day Weather Forecast

×

Almanac

Astronomie

Jun. 28, 2017 Aufgang Untergang
Genaue Zeit
Bürgerliche Dämmerung
Nautische Dämmerung
Astronomische Dämmerung
Mond
Länge des sichtbaren Lichts
Tageslänge
Tomorrow will be .
, % of the Moon is Illuminated

Heutige Rekorde

Country Highs Country Lows

Community

WunderPhotos

Category 6

Welcome to Category 6. This is the collective home for Weather Underground's featured writeups by Dr. Jeff Masters (right), Bob Henson (left), Chris Burt, and other regular contributors.

Nearby

Luftqualität

  Luftqualität LQ Index Schadstoff
Not available.

Schneehöhe

Station Depth Höhe

Erdbebenaktivität

Stadt Distance Mag. Time & Date
Minimum magnitude displayed is 2.5.

küstennahe Wassertemperaturen

Ort Temperatur

Stations

Wetterstationen in der Umgebung

Stationsstandort Temp. Windchill Taupunkt Feuchtigkeit Wind Precip. Höhe Aktualisiert Art